Salix, PA

11:03 AM EDT on June 03, 2015 (GMT -0400)
Fifty Acre Road, Adams Twp | | Change Station
CLOSE
Current Station
Personal Weather Station
Location: Johnstown, PA
Elevation: 2122 ft
Nearby Weather Stations

Elev 2122 ft 40.31 °N, 78.81 °W | Updated 2 minutes ago

Overcast
Overcast
56.7 °F
Feels Like 56.7 °F
N
3.0
Wind Variable Wind from SW
Gusts 4.0 mph

Today
High -- | Low -- °F
--% Chance of Precip.
Yesterday
High -- | Low -- °F
Precip. -- in
5:46 AM 8:40 PM
Full, 99% visible
Pressure 30.19 in
Visibility 7.0 miles
Clouds Overcast 700 ft
Dew Point 38 °F
Humidity 49%
Rainfall 0.00 in
Snow Depth Not available.
UV 3 out of 12
Pollen 5.70 out of 12
Air Quality Not available.
Flu Activity Sporadic
METAR KJST 031454Z AUTO VRB06KT 7SM OVC007 12/11 A3019 RMK AO2 SLP224 T01220106 51008

More Conditions Fewer Conditions

Pressure 30.19 in
Visibility 7.0 miles
Clouds Overcast 700 ft
Dew Point 38 °F
Humidity 49%
Rainfall 0.00 in
Snow Depth Not available.
UV 3 out of 12
Pollen 5.70 out of 12
Air Quality Not available.
Flu Activity Sporadic
METAR KJST 031454Z AUTO VRB06KT 7SM OVC007 12/11 A3019 RMK AO2 SLP224 T01220106 51008

More Conditions Fewer Conditions

10-Day Weather Forecast

×

Almanac

Astronomy

Jun. 03, 2015 Rise Set
Actual Time
Civil Twilight
Nautical Twilight
Astronomical Twilight
Moon
Length of Visible Light
Length of Day
Tomorrow will be .
, % of the Moon is Illuminated

Today's Extremes

State Highs State Lows

Community

WunderPhotos

Upload Photos

1,826,234 photos uploaded!

WunderBlogs® & News

Nearby

Air Quality

  Air Quality AQ Index Pollutant
Not available.

Snow Depth

Station Depth Elevation

Earthquake Activity

City Distance Mag. Time & Date
Minimum magnitude displayed is 2.5.

Coastal Water Temperatures

Place Temperature

Stations

Nearby Weather Stations

Station Location Temp. Windchill Dew Point Humidity Wind Precip. Elev Updated Type